Time;durP1;ratioP1;P1;durP2;ratioP2;P2;SDS_P1;SDS_P2;PMS_P1;PMS_P2;Temp;Humidity;BMP_temperature;BMP_pressure;BME280_temperature;BME280_humidity;BME280_pressure;Samples;Min_cycle;Max_cycle;Signal;HPM_P1;HPM_P2
2022/12/09 00:02:16;;;;;;;42.22;17.38;;;-0.20;99.90;;;;;;5100054;28;20016;-67
2022/12/09 00:04:43;;;;;;;41.90;14.65;;;-0.20;99.90;;;;;;5100290;28;20080;-67
2022/12/09 00:07:11;;;;;;;32.83;12.05;;;-0.20;99.90;;;;;;5100417;28;20016;-67
2022/12/09 00:09:39;;;;;;;40.65;14.02;;;-0.20;99.90;;;;;;5099951;28;20070;-67
2022/12/09 00:12:06;;;;;;;35.33;12.70;;;-0.20;99.90;;;;;;5100414;28;20073;-67
2022/12/09 00:14:33;;;;;;;40.75;13.35;;;-0.20;99.90;;;;;;5100002;28;20324;-67
2022/12/09 00:17:01;;;;;;;31.17;12.27;;;-0.20;99.90;;;;;;5099827;28;20020;-67
2022/12/09 00:19:29;;;;;;;40.13;14.30;;;-0.10;99.90;;;;;;5099778;28;20111;-67
2022/12/09 00:21:57;;;;;;;41.55;13.65;;;-0.10;99.90;;;;;;5099640;28;20073;-67
2022/12/09 00:24:24;;;;;;;40.67;14.68;;;0.00;99.90;;;;;;5099726;28;20058;-67
2022/12/09 00:26:51;;;;;;;38.22;16.25;;;0.00;99.90;;;;;;5099614;28;20027;-67
2022/12/09 00:29:19;;;;;;;40.83;14.65;;;0.00;99.90;;;;;;5099622;28;20016;-67
2022/12/09 00:31:46;;;;;;;39.20;14.45;;;0.00;99.90;;;;;;5100069;28;20020;-67
2022/12/09 00:34:13;;;;;;;40.97;13.98;;;0.00;99.90;;;;;;5100028;28;20024;-67
2022/12/09 00:36:40;;;;;;;40.03;15.15;;;0.00;99.90;;;;;;5099586;28;20101;-67
2022/12/09 00:39:09;;;;;;;37.50;13.85;;;0.00;99.90;;;;;;5098630;28;20031;-67
2022/12/09 00:41:36;;;;;;;34.80;13.27;;;0.10;99.90;;;;;;5081317;28;20032;-67
2022/12/09 00:44:03;;;;;;;38.65;14.38;;;0.10;99.90;;;;;;5099751;28;20031;-67
2022/12/09 00:46:31;;;;;;;39.83;15.38;;;0.10;99.90;;;;;;5081894;28;20066;-67
2022/12/09 00:48:58;;;;;;;37.05;13.85;;;0.10;99.90;;;;;;5099930;28;20020;-67
2022/12/09 00:51:25;;;;;;;39.92;14.68;;;0.10;99.90;;;;;;5081093;28;20022;-67
2022/12/09 00:53:54;;;;;;;36.78;14.45;;;0.10;99.90;;;;;;5099370;28;20531;-67
2022/12/09 00:56:27;;;;;;;34.40;13.23;;;0.10;99.90;;;;;;5099060;28;20028;-67
2022/12/09 00:58:56;;;;;;;32.65;13.13;;;0.20;99.90;;;;;;5099191;28;20020;-67
2022/12/09 01:01:23;;;;;;;40.58;15.50;;;0.20;99.90;;;;;;5098856;28;20028;-67
2022/12/09 01:03:51;;;;;;;39.58;14.20;;;0.20;99.90;;;;;;5098668;28;20018;-67
2022/12/09 01:06:21;;;;;;;38.78;13.75;;;0.20;99.90;;;;;;5099095;28;20016;-67
2022/12/09 01:08:49;;;;;;;36.40;13.65;;;0.20;99.90;;;;;;5099021;28;20125;-67
2022/12/09 01:11:24;;;;;;;37.03;15.25;;;0.20;99.90;;;;;;5099299;28;20020;-67
2022/12/09 01:13:57;;;;;;;39.42;15.90;;;0.30;99.90;;;;;;5098693;28;20016;-67
2022/12/09 01:16:26;;;;;;;42.17;15.07;;;0.30;99.90;;;;;;5098684;28;20058;-67
2022/12/09 01:18:56;;;;;;;44.17;15.68;;;0.30;99.90;;;;;;5098766;28;20020;-67
2022/12/09 01:21:23;;;;;;;36.40;13.65;;;0.30;99.90;;;;;;5098496;28;20031;-67
2022/12/09 01:23:51;;;;;;;39.88;14.88;;;0.30;99.90;;;;;;5098454;28;20016;-67
2022/12/09 01:26:18;;;;;;;37.17;15.13;;;0.30;99.90;;;;;;5098462;28;20016;-67
2022/12/09 01:28:49;;;;;;;43.05;16.27;;;0.30;99.90;;;;;;5098592;28;20030;-67
2022/12/09 01:31:20;;;;;;;41.60;16.58;;;0.30;99.90;;;;;;5098660;28;20020;-67
2022/12/09 01:33:47;;;;;;;41.25;16.27;;;0.30;99.90;;;;;;5098891;28;20020;-67
2022/12/09 01:36:17;;;;;;;43.10;15.45;;;0.30;99.90;;;;;;5098175;28;20091;-67
2022/12/09 01:38:45;;;;;;;45.08;15.57;;;0.20;99.90;;;;;;5098353;28;20020;-66
2022/12/09 01:41:14;;;;;;;37.78;15.02;;;0.20;99.90;;;;;;5098735;28;20431;-67
2022/12/09 01:43:41;;;;;;;44.15;17.40;;;0.20;99.90;;;;;;5098130;28;20324;-67
2022/12/09 01:46:08;;;;;;;46.53;17.20;;;0.20;99.90;;;;;;5098004;28;20035;-67
2022/12/09 01:48:43;;;;;;;44.75;15.02;;;0.20;99.90;;;;;;5080068;28;20324;-67
2022/12/09 01:51:15;;;;;;;43.60;14.52;;;0.20;99.90;;;;;;5098194;28;20020;-67
2022/12/09 01:53:47;;;;;;;38.17;14.55;;;0.20;99.90;;;;;;5098529;28;20020;-67
2022/12/09 01:56:25;;;;;;;39.90;14.73;;;0.20;99.90;;;;;;5097881;28;20020;-67
2022/12/09 01:58:53;;;;;;;43.58;14.93;;;0.20;99.90;;;;;;5097847;28;20068;-67
2022/12/09 02:01:21;;;;;;;38.13;14.85;;;0.20;99.90;;;;;;5098296;28;20051;-67
2022/12/09 02:03:49;;;;;;;43.30;16.55;;;0.20;99.90;;;;;;5098359;28;20149;-67
2022/12/09 02:06:17;;;;;;;43.80;16.73;;;0.20;99.90;;;;;;5097936;28;20024;-67
2022/12/09 02:08:46;;;;;;;39.35;15.60;;;0.20;99.90;;;;;;5098229;28;20027;-67
2022/12/09 02:11:38;;;;;;;36.88;14.60;;;0.20;99.90;;;;;;5097593;28;20087;-67
2022/12/09 02:14:26;;;;;;;36.22;14.13;;;0.30;99.90;;;;;;5097710;28;20367;-67
2022/12/09 02:17:29;;;;;;;36.00;13.93;;;0.20;99.90;;;;;;5079528;28;20027;-67
2022/12/09 02:20:09;;;;;;;36.78;15.32;;;0.20;99.90;;;;;;5098009;28;20040;-67
2022/12/09 02:23:06;;;;;;;37.55;13.55;;;0.20;99.90;;;;;;5079447;28;20024;-67
2022/12/09 02:26:06;;;;;;;43.90;15.10;;;0.20;99.90;;;;;;5079328;28;20028;-67
2022/12/09 02:28:39;;;;;;;39.70;13.85;;;0.20;99.90;;;;;;5097576;28;20035;-67
2022/12/09 02:31:25;;;;;;;38.80;13.82;;;0.20;99.90;;;;;;5097797;28;20028;-67
2022/12/09 02:34:37;;;;;;;38.95;14.43;;;0.20;99.90;;;;;;5097900;28;20026;-67
2022/12/09 02:37:05;;;;;;;37.70;15.35;;;0.20;99.90;;;;;;5084517;28;20032;-67
2022/12/09 02:40:01;;;;;;;43.35;15.70;;;0.30;99.90;;;;;;5097688;28;20027;-67
2022/12/09 02:42:33;;;;;;;40.85;13.88;;;0.30;99.90;;;;;;5097672;28;20021;-67
2022/12/09 02:45:05;;;;;;;40.10;15.43;;;0.20;99.90;;;;;;5097689;28;20031;-67
2022/12/09 02:47:36;;;;;;;34.63;15.25;;;0.20;99.90;;;;;;5097010;28;20424;-67
2022/12/09 02:50:09;;;;;;;43.58;15.95;;;0.30;99.90;;;;;;5097447;28;20048;-67
2022/12/09 02:52:38;;;;;;;44.05;14.63;;;0.30;99.90;;;;;;5078988;28;20046;-67
2022/12/09 02:55:09;;;;;;;37.17;13.70;;;0.30;99.90;;;;;;5079091;28;20081;-67
2022/12/09 02:57:38;;;;;;;36.13;14.00;;;0.30;99.90;;;;;;5096875;28;20020;-67
2022/12/09 03:00:07;;;;;;;37.85;13.55;;;0.30;99.90;;;;;;5097398;28;20031;-66
2022/12/09 03:02:47;;;;;;;41.30;15.05;;;0.30;99.90;;;;;;5096635;28;20170;-67
2022/12/09 03:05:27;;;;;;;39.17;14.07;;;0.30;99.90;;;;;;5096531;28;20075;-67
2022/12/09 03:08:19;;;;;;;35.78;13.73;;;0.30;99.90;;;;;;5097272;28;20074;-67
2022/12/09 03:11:03;;;;;;;36.10;14.15;;;0.30;99.90;;;;;;5097187;28;20073;-66
2022/12/09 03:13:47;;;;;;;35.30;14.35;;;0.40;99.90;;;;;;5096663;28;20020;-67
2022/12/09 03:16:30;;;;;;;37.25;14.00;;;0.40;99.90;;;;;;5078747;28;20063;-67
2022/12/09 03:19:09;;;;;;;38.05;15.02;;;0.40;99.90;;;;;;5078915;28;20035;-67
2022/12/09 03:21:42;;;;;;;40.60;14.05;;;0.40;99.90;;;;;;5078613;28;20032;-67
2022/12/09 03:24:13;;;;;;;41.72;14.20;;;0.40;99.90;;;;;;5097085;28;20031;-67
2022/12/09 03:26:42;;;;;;;36.40;14.32;;;0.40;99.90;;;;;;5096976;28;20020;-67
2022/12/09 03:29:18;;;;;;;40.03;13.90;;;0.40;99.90;;;;;;5097195;28;20065;-67
2022/12/09 03:31:45;;;;;;;;;;;0.30;99.90;;;;;;5097182;28;20020;-67
2022/12/09 03:34:23;;;;;;;61.55;21.42;;;0.30;99.90;;;;;;5096499;28;19977;-67
2022/12/09 03:36:52;;;;;;;128.95;38.50;;;0.40;99.90;;;;;;5078421;28;20027;-67
2022/12/09 03:39:24;;;;;;;73.30;24.33;;;0.30;99.90;;;;;;5097121;28;20428;-67
2022/12/09 03:41:57;;;;;;;68.35;23.33;;;0.30;99.90;;;;;;5078426;28;20111;-66
2022/12/09 03:44:59;;;;;;;39.08;14.77;;;0.30;99.90;;;;;;5096323;28;20111;-67
2022/12/09 03:47:27;;;;;;;38.28;15.73;;;0.30;99.90;;;;;;5096344;28;20366;-67
2022/12/09 03:49:54;;;;;;;41.35;14.63;;;0.20;99.90;;;;;;5096483;28;20028;-67
2022/12/09 03:52:39;;;;;;;34.40;14.15;;;0.10;99.90;;;;;;5096497;28;20020;-67
2022/12/09 03:55:21;;;;;;;44.72;15.18;;;0.10;99.90;;;;;;5096266;28;20024;-67
2022/12/09 03:57:53;;;;;;;55.95;19.60;;;0.00;99.90;;;;;;5096420;28;20030;-67
2022/12/09 04:00:20;;;;;;;44.15;17.55;;;0.00;99.90;;;;;;5096269;28;20029;-67
2022/12/09 04:02:48;;;;;;;50.83;18.05;;;-0.10;99.90;;;;;;5096528;28;20351;-67
2022/12/09 04:05:16;;;;;;;55.70;22.50;;;-0.10;99.90;;;;;;5095876;28;20044;-67
2022/12/09 04:07:43;;;;;;;46.97;17.25;;;-0.10;99.90;;;;;;5078301;28;20020;-67
2022/12/09 04:10:10;;;;;;;50.05;18.55;;;-0.20;99.90;;;;;;5096374;28;20439;-67
2022/12/09 04:12:38;;;;;;;51.40;17.85;;;-0.10;99.90;;;;;;5096110;28;20031;-67
2022/12/09 04:15:08;;;;;;;48.47;17.45;;;-0.10;99.90;;;;;;5099615;28;20367;-67
2022/12/09 04:17:36;;;;;;;55.30;18.17;;;-0.10;99.90;;;;;;5099741;28;20032;-67
2022/12/09 04:20:05;;;;;;;50.05;16.67;;;-0.10;99.90;;;;;;5099718;28;20164;-67
2022/12/09 04:22:32;;;;;;;51.63;16.00;;;-0.10;99.90;;;;;;5099703;28;20027;-67
2022/12/09 04:24:59;;;;;;;46.85;15.45;;;-0.10;99.90;;;;;;5099615;28;20031;-67
2022/12/09 04:27:27;;;;;;;43.00;14.80;;;0.00;99.90;;;;;;5081937;28;20059;-67
2022/12/09 04:29:54;;;;;;;49.17;15.45;;;0.00;99.90;;;;;;5100106;28;20304;-67
2022/12/09 04:32:21;;;;;;;43.38;15.68;;;0.10;99.90;;;;;;5100081;28;20016;-67
2022/12/09 04:34:49;;;;;;;47.17;15.20;;;0.10;99.90;;;;;;5099548;28;20028;-67
2022/12/09 04:37:17;;;;;;;43.97;15.63;;;0.10;99.90;;;;;;5100084;28;20028;-67
2022/12/09 04:39:45;;;;;;;42.97;15.40;;;0.10;99.90;;;;;;5081452;28;20024;-67
2022/12/09 04:42:12;;;;;;;29.52;9.80;;;0.20;99.90;;;;;;5099924;28;20020;-67
2022/12/09 04:44:39;;;;;;;36.55;12.90;;;0.20;99.90;;;;;;5099848;28;20035;-67
2022/12/09 04:47:07;;;;;;;35.72;14.25;;;0.20;99.90;;;;;;5099269;28;20020;-67
2022/12/09 04:49:34;;;;;;;43.33;14.88;;;0.20;99.90;;;;;;5099931;28;20055;-67
2022/12/09 04:52:02;;;;;;;55.55;17.90;;;0.10;99.90;;;;;;5099054;28;20133;-67
2022/12/09 04:54:30;;;;;;;40.83;14.40;;;0.10;99.90;;;;;;5099186;28;20037;-67
2022/12/09 04:56:57;;;;;;;48.22;16.58;;;0.10;99.90;;;;;;5099040;28;20032;-67
2022/12/09 04:59:24;;;;;;;40.70;15.57;;;0.10;99.90;;;;;;5099732;28;20028;-67
2022/12/09 05:01:52;;;;;;;37.50;14.55;;;0.10;99.90;;;;;;5099209;28;20024;-67
2022/12/09 05:04:20;;;;;;;41.85;17.13;;;0.10;99.90;;;;;;5099137;28;20050;-67
2022/12/09 05:06:47;;;;;;;42.85;14.57;;;0.10;99.90;;;;;;5080893;28;20075;-67
2022/12/09 05:09:15;;;;;;;38.88;14.05;;;0.10;99.90;;;;;;5099556;28;20020;-67
2022/12/09 05:11:42;;;;;;;35.33;12.43;;;0.10;99.90;;;;;;5099095;28;20016;-67
2022/12/09 05:14:09;;;;;;;34.90;13.30;;;0.10;99.90;;;;;;5099258;28;20023;-67
2022/12/09 05:16:37;;;;;;;31.65;12.15;;;0.10;99.90;;;;;;5080782;28;20020;-67
2022/12/09 05:19:05;;;;;;;30.80;11.73;;;0.20;99.90;;;;;;5098830;28;20016;-67
2022/12/09 05:21:33;;;;;;;29.30;12.23;;;0.20;99.90;;;;;;5080620;28;20332;-67
2022/12/09 05:24:02;;;;;;;32.08;11.48;;;0.20;99.90;;;;;;5080575;28;20020;-67
2022/12/09 05:26:29;;;;;;;32.15;10.13;;;0.30;99.90;;;;;;5098367;28;20310;-67
2022/12/09 05:28:56;;;;;;;29.75;11.10;;;0.30;99.90;;;;;;5098882;28;20016;-67
2022/12/09 05:31:24;;;;;;;34.45;12.50;;;0.30;99.90;;;;;;5098423;28;20052;-67
2022/12/09 05:33:52;;;;;;;29.13;12.50;;;0.30;99.90;;;;;;5098429;28;20504;-67
2022/12/09 05:36:24;;;;;;;27.83;10.77;;;0.30;99.90;;;;;;5098802;28;20024;-67
2022/12/09 05:38:52;;;;;;;24.33;9.48;;;0.30;99.90;;;;;;5098405;28;20046;-67
2022/12/09 05:41:20;;;;;;;28.52;11.40;;;0.30;99.90;;;;;;5098803;28;20020;-66
2022/12/09 05:43:47;;;;;;;35.78;12.45;;;0.30;99.90;;;;;;5098201;28;20031;-67
2022/12/09 05:46:15;;;;;;;36.97;12.80;;;0.40;99.90;;;;;;5098047;28;20103;-67
2022/12/09 05:48:43;;;;;;;34.50;13.27;;;0.30;99.90;;;;;;5098799;28;20101;-67
2022/12/09 05:51:15;;;;;;;30.40;11.98;;;0.30;99.90;;;;;;5097927;28;20012;-67
2022/12/09 05:53:43;;;;;;;25.38;10.30;;;0.40;99.90;;;;;;5098002;28;20504;-67
2022/12/09 05:56:14;;;;;;;36.72;14.50;;;0.30;99.90;;;;;;5097922;28;20031;-67
2022/12/09 05:58:42;;;;;;;35.05;13.07;;;0.40;99.90;;;;;;5098609;28;20107;-66
2022/12/09 06:01:09;;;;;;;38.25;14.85;;;0.40;99.90;;;;;;5098346;28;20358;-67
2022/12/09 06:03:37;;;;;;;34.30;12.88;;;0.40;99.90;;;;;;5098348;28;20020;-66
2022/12/09 06:06:09;;;;;;;30.58;13.15;;;0.30;99.90;;;;;;5097368;28;20055;-67
2022/12/09 06:08:37;;;;;;;31.52;13.20;;;0.30;99.90;;;;;;5097837;28;20016;-67
2022/12/09 06:11:16;;;;;;;34.95;12.30;;;0.40;99.90;;;;;;5098171;28;20016;-66
2022/12/09 06:13:44;;;;;;;35.90;12.98;;;0.40;99.90;;;;;;5098173;28;20028;-66
2022/12/09 06:16:13;;;;;;;31.88;13.00;;;0.40;99.90;;;;;;5097826;28;20023;-67
2022/12/09 06:18:41;;;;;;;38.38;15.73;;;0.40;99.90;;;;;;5098241;28;20085;-67
2022/12/09 06:21:11;;;;;;;33.97;15.18;;;0.40;99.90;;;;;;5097377;28;20020;-66
2022/12/09 06:23:40;;;;;;;31.60;12.63;;;0.40;99.90;;;;;;5097378;28;20348;-66
2022/12/09 06:26:15;;;;;;;31.75;12.63;;;0.40;99.90;;;;;;5097784;28;20024;-67
2022/12/09 06:28:42;;;;;;;30.33;11.73;;;0.40;99.90;;;;;;5097491;28;20098;-67
2022/12/09 06:31:09;;;;;;;26.48;10.43;;;0.40;99.90;;;;;;5097238;28;20293;-66
2022/12/09 06:33:36;;;;;;;24.58;10.20;;;0.40;99.90;;;;;;5097268;28;20077;-66
2022/12/09 06:36:05;;;;;;;22.55;10.63;;;0.40;99.90;;;;;;5097582;28;20027;-66
2022/12/09 06:38:33;;;;;;;34.50;14.07;;;0.40;99.90;;;;;;5097672;28;20309;-66
2022/12/09 06:41:05;;;;;;;26.40;11.23;;;0.40;99.90;;;;;;5097555;28;20371;-67
2022/12/09 06:43:33;;;;;;;28.52;12.27;;;0.40;99.90;;;;;;5096976;28;20346;-66
2022/12/09 06:46:00;;;;;;;26.40;12.30;;;0.40;99.90;;;;;;5079135;28;20028;-67
2022/12/09 06:48:29;;;;;;;26.23;10.73;;;0.40;99.90;;;;;;5097141;28;20376;-66
2022/12/09 06:50:56;;;;;;;25.15;9.85;;;0.40;99.90;;;;;;5097308;28;20024;-66
2022/12/09 06:53:23;;;;;;;19.63;9.00;;;0.40;99.90;;;;;;5097481;28;20416;-66
2022/12/09 06:55:51;;;;;;;18.10;7.97;;;0.40;99.90;;;;;;5096905;28;20020;-66
2022/12/09 06:58:18;;;;;;;22.67;8.65;;;0.40;99.90;;;;;;5097526;28;20020;-66
2022/12/09 07:00:45;;;;;;;20.20;8.48;;;0.40;99.90;;;;;;5078884;28;20395;-66
2022/12/09 07:03:13;;;;;;;19.40;7.80;;;0.40;99.90;;;;;;5096801;28;20020;-66
2022/12/09 07:05:40;;;;;;;17.20;7.63;;;0.40;99.90;;;;;;5075090;28;20136;-67
2022/12/09 07:08:08;;;;;;;17.90;8.15;;;0.40;99.90;;;;;;5075414;28;20021;-68
2022/12/09 07:10:35;;;;;;;18.30;7.38;;;0.40;99.90;;;;;;5077046;28;20044;-70
2022/12/09 07:13:03;;;;;;;19.70;9.00;;;0.40;99.90;;;;;;5075377;28;20029;-71
2022/12/09 07:15:30;;;;;;;18.95;8.63;;;0.40;99.90;;;;;;5075957;28;20119;-71
2022/12/09 07:17:57;;;;;;;18.58;7.60;;;0.50;99.90;;;;;;5076479;28;20320;-76
2022/12/09 07:20:24;;;;;;;18.85;8.95;;;0.50;99.90;;;;;;5076124;28;20333;-70
2022/12/09 07:22:52;;;;;;;17.73;9.57;;;0.50;99.90;;;;;;5077158;28;20409;-71
2022/12/09 07:25:19;;;;;;;16.20;7.43;;;0.50;99.90;;;;;;5076834;28;20408;-77
2022/12/09 07:27:47;;;;;;;20.77;8.10;;;0.50;99.90;;;;;;5076380;28;20313;-77
2022/12/09 07:30:15;;;;;;;18.98;8.25;;;0.50;99.90;;;;;;5075246;28;20021;-72
2022/12/09 07:32:42;;;;;;;18.90;8.82;;;0.50;99.90;;;;;;5075384;28;20025;-73
2022/12/09 07:35:10;;;;;;;20.65;9.98;;;0.50;99.90;;;;;;5075205;28;20025;-73
2022/12/09 07:37:37;;;;;;;17.45;8.40;;;0.50;99.90;;;;;;5074420;28;20115;-73
2022/12/09 07:40:05;;;;;;;19.98;9.15;;;0.50;99.90;;;;;;5076495;28;20099;-72
2022/12/09 07:42:33;;;;;;;18.55;9.93;;;0.60;99.90;;;;;;5076699;28;20020;-74
2022/12/09 07:45:01;;;;;;;27.48;11.48;;;0.50;99.90;;;;;;5075039;28;20035;-75
2022/12/09 07:47:29;;;;;;;22.08;10.48;;;0.60;99.90;;;;;;5076205;28;20107;-73
2022/12/09 07:49:57;;;;;;;21.25;9.85;;;0.60;99.90;;;;;;5078425;28;20036;-75
2022/12/09 07:52:24;;;;;;;21.38;9.43;;;0.60;99.90;;;;;;5080194;28;20019;-72
2022/12/09 07:54:53;;;;;;;20.65;8.93;;;0.60;99.90;;;;;;5080038;28;20043;-73
2022/12/09 07:57:22;;;;;;;20.77;8.73;;;0.70;99.90;;;;;;5079953;28;20112;-74
2022/12/09 07:59:52;;;;;;;19.17;10.00;;;0.70;99.90;;;;;;5080235;28;20369;-72
2022/12/09 08:02:20;;;;;;;22.92;9.65;;;0.70;99.90;;;;;;5080040;28;20043;-72
2022/12/09 08:04:48;;;;;;;22.00;10.93;;;0.70;99.90;;;;;;5088238;28;20047;-75
2022/12/09 08:07:15;;;;;;;22.75;10.57;;;0.70;99.90;;;;;;5100538;28;20017;-76
2022/12/09 08:09:43;;;;;;;22.58;10.35;;;0.70;99.90;;;;;;5100055;28;20020;-73
2022/12/09 08:12:11;;;;;;;22.58;10.82;;;0.80;99.90;;;;;;5100022;28;20023;-73
2022/12/09 08:14:38;;;;;;;22.33;10.00;;;0.80;99.90;;;;;;5100127;28;20097;-72
2022/12/09 08:17:06;;;;;;;26.08;11.80;;;0.80;99.90;;;;;;5081875;28;20024;-72
2022/12/09 08:19:33;;;;;;;22.73;10.25;;;0.80;99.90;;;;;;5100135;28;20020;-71
2022/12/09 08:22:00;;;;;;;21.83;9.85;;;0.80;99.90;;;;;;5099750;28;20019;-71
2022/12/09 08:24:28;;;;;;;23.38;10.98;;;0.90;99.90;;;;;;5100006;28;20024;-74
2022/12/09 08:26:55;;;;;;;21.52;10.30;;;0.90;99.90;;;;;;5099736;28;20020;-74
2022/12/09 08:29:22;;;;;;;20.70;10.00;;;0.90;99.90;;;;;;5080865;28;20097;-73
2022/12/09 08:31:50;;;;;;;17.15;8.85;;;1.00;99.90;;;;;;5099766;28;20024;-72
2022/12/09 08:34:18;;;;;;;18.95;8.95;;;1.00;99.90;;;;;;5099831;28;20050;-72
2022/12/09 08:36:45;;;;;;;25.15;11.32;;;1.00;99.90;;;;;;5099618;28;20020;-73
2022/12/09 08:39:13;;;;;;;22.27;10.02;;;1.00;99.90;;;;;;5099612;28;20078;-70
2022/12/09 08:41:42;;;;;;;20.13;9.43;;;1.00;99.90;;;;;;5099422;28;20046;-75
2022/12/09 08:44:18;;;;;;;21.55;9.93;;;1.10;99.90;;;;;;5099828;28;20016;-70
2022/12/09 08:46:49;;;;;;;22.85;10.45;;;1.10;99.90;;;;;;5099332;28;20020;-69
2022/12/09 08:49:18;;;;;;;23.33;10.68;;;1.10;99.90;;;;;;5099410;28;20020;-70
2022/12/09 08:51:46;;;;;;;17.80;9.73;;;1.10;99.90;;;;;;5099118;28;20012;-70
2022/12/09 08:54:14;;;;;;;21.63;10.40;;;1.10;99.90;;;;;;5099752;28;20055;-70
2022/12/09 08:56:47;;;;;;;20.30;9.75;;;1.10;99.90;;;;;;5099727;28;20047;-70
2022/12/09 08:59:16;;;;;;;21.08;10.20;;;1.10;99.90;;;;;;5099575;28;20027;-70
2022/12/09 09:01:44;;;;;;;23.70;11.23;;;1.10;99.90;;;;;;5080166;28;20398;-70
2022/12/09 09:04:14;;;;;;;17.52;9.68;;;1.10;99.90;;;;;;5098760;28;20436;-70
2022/12/09 09:06:45;;;;;;;22.67;11.05;;;1.10;99.90;;;;;;5098884;28;20360;-70
2022/12/09 09:09:14;;;;;;;24.92;10.57;;;1.10;99.90;;;;;;5099638;28;20016;-70
2022/12/09 09:11:43;;;;;;;16.85;8.40;;;1.10;99.90;;;;;;5098879;28;20043;-70
2022/12/09 09:14:12;;;;;;;19.50;9.65;;;1.20;99.90;;;;;;5099415;28;20042;-70
2022/12/09 09:16:42;;;;;;;19.48;9.77;;;1.20;99.90;;;;;;5098808;28;20035;-70
2022/12/09 09:19:16;;;;;;;22.63;10.63;;;1.20;99.90;;;;;;5080945;28;20051;-70
2022/12/09 09:21:44;;;;;;;21.58;9.95;;;1.20;99.90;;;;;;5098590;28;20081;-70
2022/12/09 09:24:13;;;;;;;20.13;10.73;;;1.30;99.90;;;;;;5098590;28;20480;-70
2022/12/09 09:26:42;;;;;;;21.50;10.80;;;1.30;99.90;;;;;;5080647;28;20541;-70
2022/12/09 09:29:14;;;;;;;21.00;10.68;;;1.40;99.90;;;;;;5099248;28;20020;-70
2022/12/09 09:31:42;;;;;;;20.45;11.88;;;1.40;99.90;;;;;;5099022;28;20020;-70
2022/12/09 09:34:09;;;;;;;18.85;11.05;;;1.50;99.90;;;;;;5098990;28;20020;-71
2022/12/09 09:36:36;;;;;;;23.30;12.00;;;1.50;99.90;;;;;;5080326;28;20024;-70
2022/12/09 09:39:04;;;;;;;26.85;13.00;;;1.70;99.90;;;;;;5098304;28;20024;-70
2022/12/09 09:41:51;;;;;;;30.73;14.60;;;1.70;99.90;;;;;;5080299;28;20035;-70
2022/12/09 09:44:31;;;;;;;30.38;15.73;;;1.80;99.90;;;;;;5098409;28;20485;-71
2022/12/09 09:47:00;;;;;;;25.80;14.02;;;1.70;99.90;;;;;;5098699;28;20031;-71
2022/12/09 09:49:53;;;;;;;24.80;12.50;;;1.80;99.90;;;;;;5098149;28;20320;-71
2022/12/09 09:52:23;;;;;;;22.42;12.25;;;1.80;99.90;;;;;;5098725;28;20012;-71
2022/12/09 09:54:51;;;;;;;17.30;10.05;;;1.80;99.90;;;;;;5098013;28;20042;-71
2022/12/09 09:57:32;;;;;;;24.02;12.57;;;1.80;99.90;;;;;;5097978;28;20020;-71
2022/12/09 10:00:15;;;;;;;22.80;11.48;;;1.90;99.90;;;;;;5097878;28;20032;-70
2022/12/09 10:02:58;;;;;;;20.70;10.73;;;2.00;99.90;;;;;;5098291;28;20031;-71
2022/12/09 10:05:33;;;;;;;17.85;9.90;;;2.00;99.90;;;;;;5097447;28;20040;-71
2022/12/09 10:08:38;;;;;;;17.80;8.85;;;2.00;99.90;;;;;;5097767;28;20028;-71
2022/12/09 10:11:20;;;;;;;19.83;10.00;;;2.10;99.90;;;;;;5097448;28;20077;-71
2022/12/09 10:14:09;;;;;;;20.98;10.48;;;2.10;99.90;;;;;;5097818;28;20039;-71
2022/12/09 10:16:45;;;;;;;21.90;10.52;;;2.10;99.90;;;;;;5098160;28;20030;-71
2022/12/09 10:19:34;;;;;;;21.48;10.27;;;2.20;99.90;;;;;;5097650;28;20020;-71
2022/12/09 10:22:30;;;;;;;23.98;11.15;;;2.20;99.90;;;;;;5097580;28;20028;-71
2022/12/09 10:25:02;;;;;;;21.00;10.57;;;2.20;99.90;;;;;;5079421;28;20428;-71
2022/12/09 10:27:35;;;;;;;19.27;9.77;;;2.20;99.90;;;;;;5098015;28;20105;-71
2022/12/09 10:30:06;;;;;;;21.33;10.32;;;2.20;99.90;;;;;;5097936;28;20304;-71
2022/12/09 10:32:36;;;;;;;20.55;11.15;;;2.30;99.90;;;;;;5098062;28;20024;-71
2022/12/09 10:35:31;;;;;;;29.42;14.32;;;2.30;99.90;;;;;;5079224;28;20032;-71
2022/12/09 10:38:13;;;;;;;24.98;12.50;;;2.30;99.90;;;;;;5095368;28;20028;-71
2022/12/09 10:40:53;;;;;;;21.35;9.30;;;2.30;99.90;;;;;;5097210;28;20027;-71
2022/12/09 10:43:35;;;;;;;17.95;9.52;;;2.30;99.90;;;;;;5097201;28;20036;-71
2022/12/09 10:46:08;;;;;;;19.48;10.65;;;2.40;99.90;;;;;;5097608;28;20028;-71
2022/12/09 10:48:38;;;;;;;23.27;11.27;;;2.40;99.90;;;;;;5079532;28;20020;-71
2022/12/09 10:51:19;;;;;;;23.42;12.93;;;2.40;99.90;;;;;;5097482;28;20404;-71
2022/12/09 10:53:48;;;;;;;36.30;15.57;;;2.40;99.90;;;;;;5097516;28;20031;-71
2022/12/09 10:57:00;;;;;;;22.35;11.93;;;2.40;99.90;;;;;;5096919;28;20024;-71
2022/12/09 10:59:30;;;;;;;28.73;13.40;;;2.40;99.90;;;;;;5078931;28;20080;-71
2022/12/09 11:02:00;;;;;;;30.35;13.20;;;2.30;99.90;;;;;;5097382;28;20035;-85
2022/12/09 11:04:30;;;;;;;19.92;10.60;;;2.30;99.90;;;;;;5075425;28;20048;-71
2022/12/09 11:07:04;;;;;;;22.60;12.70;;;2.30;99.90;;;;;;5076644;28;20107;-72
2022/12/09 11:09:56;;;;;;;26.63;13.27;;;2.30;99.90;;;;;;5076557;28;20021;-71
2022/12/09 11:12:32;;;;;;;20.17;10.95;;;2.20;99.90;;;;;;5069435;28;20037;-73
2022/12/09 11:15:05;;;;;;;21.40;11.20;;;2.20;99.90;;;;;;5076497;28;20025;-73
2022/12/09 11:17:40;;;;;;;14.20;7.95;;;2.20;99.90;;;;;;5075423;28;20083;-73
2022/12/09 11:20:23;;;;;;;13.35;7.80;;;2.10;99.90;;;;;;5076929;28;20032;-70
2022/12/09 11:23:17;;;;;;;20.80;10.80;;;2.10;99.90;;;;;;5077583;28;20024;-72
2022/12/09 11:25:59;;;;;;;24.77;12.82;;;2.10;99.90;;;;;;5077865;28;20046;-72
2022/12/09 11:28:29;;;;;;;21.63;11.02;;;2.00;99.90;;;;;;5083059;28;20017;-72
2022/12/09 11:30:59;;;;;;;19.25;11.10;;;2.10;99.90;;;;;;5083018;28;20025;-72
2022/12/09 11:33:34;;;;;;;25.00;12.18;;;2.10;99.90;;;;;;5083094;28;20024;-72
2022/12/09 11:36:05;;;;;;;24.55;13.27;;;2.00;99.90;;;;;;5082934;28;20067;-71
2022/12/09 11:38:38;;;;;;;22.25;11.60;;;2.00;99.90;;;;;;5083566;28;20432;-72
2022/12/09 11:41:09;;;;;;;13.88;8.05;;;2.00;99.90;;;;;;5083218;28;20056;-72
2022/12/09 11:43:44;;;;;;;10.60;6.20;;;2.00;99.90;;;;;;5083351;28;20043;-72
2022/12/09 11:46:17;;;;;;;13.18;7.05;;;2.00;99.90;;;;;;5082840;28;20024;-72
2022/12/09 11:49:07;;;;;;;13.90;8.18;;;2.00;99.90;;;;;;5082827;28;20048;-72
2022/12/09 11:51:59;;;;;;;15.07;8.32;;;2.00;99.90;;;;;;5082737;28;20486;-72
2022/12/09 11:54:44;;;;;;;15.45;8.00;;;2.00;99.90;;;;;;5082805;28;20443;-72
2022/12/09 11:57:43;;;;;;;14.98;8.00;;;2.10;99.90;;;;;;5082785;28;20099;-70
2022/12/09 12:00:30;;;;;;;14.73;7.85;;;2.10;99.90;;;;;;5082570;28;20417;-71
2022/12/09 12:03:12;;;;;;;25.35;11.65;;;2.10;99.90;;;;;;5083417;28;20090;-73
2022/12/09 12:05:44;;;;;;;23.50;9.63;;;2.10;99.90;;;;;;5097965;28;20040;-75
2022/12/09 12:08:34;;;;;;;12.95;7.10;;;2.20;99.90;;;;;;5103312;28;20039;-76
2022/12/09 12:11:18;;;;;;;13.90;7.18;;;2.20;99.90;;;;;;5084951;28;20116;-74
2022/12/09 12:13:47;;;;;;;16.42;8.90;;;2.20;99.90;;;;;;5103058;28;20428;-72
2022/12/09 12:16:21;;;;;;;11.85;6.68;;;2.20;99.90;;;;;;5084855;28;20089;-74
2022/12/09 12:18:54;;;;;;;11.10;6.28;;;2.20;99.90;;;;;;5103143;28;20024;-72
2022/12/09 12:21:36;;;;;;;13.20;6.28;;;2.20;99.90;;;;;;5102801;28;20104;-74
2022/12/09 12:24:31;;;;;;;13.07;6.60;;;2.20;99.90;;;;;;5103544;28;20020;-69
2022/12/09 12:27:14;;;;;;;11.68;6.55;;;2.30;99.90;;;;;;5103132;28;20089;-70
2022/12/09 12:30:06;;;;;;;15.57;8.90;;;2.30;99.90;;;;;;5103356;28;20024;-73
2022/12/09 12:32:48;;;;;;;16.38;9.70;;;2.30;99.90;;;;;;5103468;28;20020;-73
2022/12/09 12:35:31;;;;;;;15.55;8.48;;;2.40;99.90;;;;;;5101021;28;20064;-73
2022/12/09 12:38:02;;;;;;;13.85;8.38;;;2.40;99.90;;;;;;5099812;28;20031;-72
2022/12/09 12:40:47;;;;;;;15.32;8.77;;;2.40;99.90;;;;;;5099802;28;20070;-73
2022/12/09 12:46:27;;;;;;;14.20;9.00;;;2.40;99.90;;;;;;5099302;28;20074;-73
2022/12/09 12:49:18;;;;;;;13.80;7.97;;;2.40;99.90;;;;;;5099866;28;20024;-72
2022/12/09 12:51:46;;;;;;;14.85;8.77;;;2.30;99.90;;;;;;5081487;28;20027;-73
2022/12/09 12:54:47;;;;;;;14.23;8.35;;;2.40;99.90;;;;;;5099870;28;20073;-72
2022/12/09 12:57:41;;;;;;;15.18;9.25;;;2.40;99.90;;;;;;5053037;28;20034;-72
2022/12/09 13:00:20;;;;;;;15.23;9.40;;;2.40;99.90;;;;;;5099594;28;20298;-72
2022/12/09 13:03:12;;;;;;;19.45;11.65;;;2.40;99.90;;;;;;5099811;28;20028;-72
2022/12/09 13:05:45;;;;;;;16.48;9.38;;;2.40;99.90;;;;;;5098799;28;20044;-72
2022/12/09 13:08:44;;;;;;;18.85;11.70;;;2.40;99.90;;;;;;5099191;28;20024;-72
2022/12/09 13:11:20;;;;;;;22.15;12.85;;;2.40;99.90;;;;;;5098919;28;20020;-72